createdAt,value
2023-02-18T00:01:08.481Z,4.00
2023-02-18T00:03:35.169Z,4.20
2023-02-18T00:06:10.014Z,4.30
2023-02-18T00:08:36.706Z,4.20
2023-02-18T00:11:05.278Z,3.90
2023-02-18T00:13:32.042Z,4.10
2023-02-18T00:16:02.546Z,4.00
2023-02-18T00:18:29.218Z,4.00
2023-02-18T00:20:55.985Z,4.00
2023-02-18T00:23:22.625Z,3.90
2023-02-18T00:25:49.280Z,3.80
2023-02-18T00:28:16.191Z,3.90
2023-02-18T00:30:43.785Z,3.90
2023-02-18T00:33:10.453Z,3.90
2023-02-18T00:35:37.161Z,3.60
2023-02-18T00:38:03.817Z,3.60
2023-02-18T00:40:30.520Z,4.00
2023-02-18T00:42:57.213Z,4.00
2023-02-18T00:45:23.913Z,3.80
2023-02-18T00:47:50.565Z,3.80
2023-02-18T00:50:17.230Z,3.90
2023-02-18T00:52:43.892Z,3.60
2023-02-18T00:55:10.604Z,3.80
2023-02-18T00:57:37.266Z,3.50
2023-02-18T01:00:05.208Z,3.70
2023-02-18T01:02:32.268Z,3.80
2023-02-18T01:04:58.958Z,3.80
2023-02-18T01:07:25.624Z,3.90
2023-02-18T01:09:52.316Z,4.10
2023-02-18T01:12:19.061Z,4.20
2023-02-18T01:14:45.728Z,4.10
2023-02-18T01:17:12.397Z,4.00
2023-02-18T01:19:39.070Z,4.10
2023-02-18T01:22:06.792Z,4.10
2023-02-18T01:24:33.442Z,3.90
2023-02-18T01:27:00.125Z,3.70
2023-02-18T01:29:26.814Z,3.80
2023-02-18T01:31:53.610Z,3.70
2023-02-18T01:34:20.324Z,3.60
2023-02-18T01:36:47.000Z,3.40
2023-02-18T01:39:13.690Z,3.60
2023-02-18T01:41:40.357Z,3.40
2023-02-18T01:44:14.575Z,3.40
2023-02-18T01:46:41.304Z,3.40
2023-02-18T01:49:08.579Z,3.50
2023-02-18T01:51:40.143Z,3.70
2023-02-18T01:54:10.032Z,3.80
2023-02-18T01:56:45.494Z,3.60
2023-02-18T01:59:21.024Z,3.70
2023-02-18T02:01:48.013Z,4.00
2023-02-18T02:04:14.885Z,3.80
2023-02-18T02:06:41.549Z,3.50
2023-02-18T02:09:10.189Z,3.60
2023-02-18T02:11:36.911Z,3.60
2023-02-18T02:14:06.552Z,3.60
2023-02-18T02:16:51.703Z,3.80
2023-02-18T02:19:37.682Z,4.00
2023-02-18T02:22:16.241Z,3.80
2023-02-18T02:24:52.768Z,3.70
2023-02-18T02:27:25.191Z,3.70
2023-02-18T02:30:10.809Z,3.80
2023-02-18T02:32:43.699Z,3.90
2023-02-18T02:35:10.353Z,3.80
2023-02-18T02:37:40.060Z,4.00
2023-02-18T02:40:21.129Z,3.90
2023-02-18T02:42:48.062Z,3.90
2023-02-18T02:45:33.315Z,4.00
2023-02-18T02:48:06.346Z,3.90
2023-02-18T02:50:38.410Z,3.90
2023-02-18T02:53:08.440Z,3.70
2023-02-18T02:55:35.154Z,3.80
2023-02-18T02:58:01.819Z,4.00
2023-02-18T03:00:31.507Z,3.70
2023-02-18T03:02:58.173Z,4.10
2023-02-18T03:05:24.811Z,4.00
2023-02-18T03:08:10.390Z,3.80
2023-02-18T03:10:48.131Z,3.90
2023-02-18T03:13:20.828Z,4.00
2023-02-18T03:15:56.597Z,4.10
2023-02-18T03:18:34.096Z,4.10
2023-02-18T03:21:06.830Z,4.20
2023-02-18T03:23:37.163Z,4.10
2023-02-18T03:26:04.976Z,4.30
2023-02-18T03:28:32.384Z,4.60
2023-02-18T03:31:01.236Z,4.80
2023-02-18T03:33:37.083Z,4.40
2023-02-18T03:36:04.141Z,4.20
2023-02-18T03:38:40.248Z,4.20
2023-02-18T03:41:06.916Z,4.30
2023-02-18T03:43:33.853Z,4.30
2023-02-18T03:46:00.805Z,4.30
2023-02-18T03:48:27.834Z,4.40
2023-02-18T03:50:54.508Z,4.30
2023-02-18T03:53:21.227Z,4.20
2023-02-18T03:55:47.968Z,4.30
2023-02-18T03:58:14.673Z,4.40
2023-02-18T04:00:41.358Z,4.40
2023-02-18T04:03:08.021Z,4.60
2023-02-18T04:05:34.756Z,4.80
2023-02-18T04:08:01.406Z,4.80
2023-02-18T04:10:28.086Z,4.60
2023-02-18T04:12:54.790Z,4.80
2023-02-18T04:15:21.441Z,5.00
2023-02-18T04:17:48.118Z,4.90
2023-02-18T04:20:14.821Z,5.00
2023-02-18T04:22:41.534Z,5.00
2023-02-18T04:25:08.238Z,4.90
2023-02-18T04:27:34.922Z,4.90
2023-02-18T04:30:01.808Z,4.90
2023-02-18T04:32:28.522Z,5.00
2023-02-18T04:34:55.324Z,4.70
2023-02-18T04:37:22.010Z,4.70
2023-02-18T04:39:48.674Z,4.70
2023-02-18T04:42:15.444Z,4.80
2023-02-18T04:44:42.134Z,4.90
2023-02-18T04:47:08.916Z,5.20
2023-02-18T04:49:35.690Z,5.20
2023-02-18T04:52:04.334Z,5.00
2023-02-18T04:54:31.011Z,5.20
2023-02-18T04:56:57.654Z,5.40
2023-02-18T04:59:24.602Z,5.40
2023-02-18T05:01:51.292Z,5.30
2023-02-18T05:04:18.032Z,5.30
2023-02-18T05:06:44.747Z,5.40
2023-02-18T05:09:11.818Z,5.30
2023-02-18T05:11:38.573Z,5.30
2023-02-18T05:14:05.245Z,5.40
2023-02-18T05:16:31.981Z,5.30
2023-02-18T05:18:58.687Z,5.20
2023-02-18T05:21:25.381Z,5.00
2023-02-18T05:23:52.038Z,5.20
2023-02-18T05:26:18.697Z,5.40
2023-02-18T05:28:45.405Z,5.30
2023-02-18T05:31:12.231Z,5.20
2023-02-18T05:33:39.126Z,5.10
2023-02-18T05:36:06.118Z,5.00
2023-02-18T05:38:32.881Z,5.00
2023-02-18T05:40:59.539Z,5.10
2023-02-18T05:43:26.221Z,5.00
2023-02-18T05:45:52.877Z,5.70
2023-02-18T05:48:19.559Z,5.70
2023-02-18T05:50:46.348Z,5.40
2023-02-18T05:53:13.054Z,5.00
2023-02-18T05:55:39.747Z,5.00
2023-02-18T05:58:06.597Z,5.20
2023-02-18T06:00:33.365Z,5.30
2023-02-18T06:03:00.160Z,5.20
2023-02-18T06:05:26.921Z,5.30
2023-02-18T06:07:56.344Z,5.40
2023-02-18T06:10:23.381Z,5.20
2023-02-18T06:12:50.353Z,5.10
2023-02-18T06:15:17.048Z,5.10
2023-02-18T06:17:43.690Z,5.30
2023-02-18T06:20:10.636Z,5.10
2023-02-18T06:22:37.298Z,4.90
2023-02-18T06:25:03.982Z,5.10
2023-02-18T06:27:30.748Z,5.10
2023-02-18T06:29:57.484Z,5.10
2023-02-18T06:32:24.391Z,5.10
2023-02-18T06:34:51.155Z,5.10
2023-02-18T06:37:17.822Z,5.00
2023-02-18T06:39:44.515Z,5.00
2023-02-18T06:42:11.161Z,5.10
2023-02-18T06:44:38.184Z,5.20
2023-02-18T06:47:04.914Z,5.20
2023-02-18T06:49:31.700Z,5.30
2023-02-18T06:51:58.400Z,5.50
2023-02-18T06:54:25.362Z,5.60
2023-02-18T06:56:52.149Z,5.60
2023-02-18T06:59:18.837Z,5.30
2023-02-18T07:01:45.503Z,5.30
2023-02-18T07:04:12.210Z,5.30
2023-02-18T07:06:38.931Z,5.50
2023-02-18T07:09:05.881Z,5.50
2023-02-18T07:11:32.551Z,5.60
2023-02-18T07:13:59.212Z,5.50
2023-02-18T07:16:25.908Z,5.40
2023-02-18T07:18:52.569Z,5.40
2023-02-18T07:21:19.282Z,5.40
2023-02-18T07:23:45.931Z,5.60
2023-02-18T07:26:14.560Z,5.60
2023-02-18T07:28:41.688Z,5.60
2023-02-18T07:31:08.853Z,5.80
2023-02-18T07:33:35.610Z,6.00
2023-02-18T07:36:03.027Z,6.20
2023-02-18T07:38:29.986Z,6.20
2023-02-18T07:40:57.106Z,6.10
2023-02-18T07:43:23.818Z,6.20
2023-02-18T07:45:50.571Z,6.30
2023-02-18T07:48:17.508Z,6.90
2023-02-18T07:50:44.962Z,7.30
2023-02-18T07:53:12.572Z,7.30
2023-02-18T07:55:51.773Z,7.10
2023-02-18T07:58:19.822Z,7.10
2023-02-18T08:00:47.714Z,7.60
2023-02-18T08:03:14.830Z,7.70
2023-02-18T08:05:41.524Z,7.60
2023-02-18T08:08:09.590Z,7.50
2023-02-18T08:10:36.241Z,7.40
2023-02-18T08:13:02.912Z,7.40
2023-02-18T08:15:29.555Z,7.50
2023-02-18T08:17:56.177Z,7.70
2023-02-18T08:20:22.868Z,8.00
2023-02-18T08:22:49.541Z,8.00
2023-02-18T08:25:29.049Z,8.10
2023-02-18T08:27:56.249Z,8.10
2023-02-18T08:30:23.060Z,8.20
2023-02-18T08:32:49.738Z,8.40
2023-02-18T08:35:16.482Z,8.40
2023-02-18T08:37:52.404Z,8.80
2023-02-18T08:40:20.989Z,9.00
2023-02-18T08:42:47.654Z,9.10
2023-02-18T08:45:14.390Z,9.50
2023-02-18T08:48:15.992Z,9.70
2023-02-18T08:50:30.090Z,9.60
2023-02-18T08:53:21.390Z,9.80
2023-02-18T08:55:48.412Z,9.80
2023-02-18T08:58:15.301Z,9.70
2023-02-18T09:00:42.740Z,9.90
2023-02-18T09:03:12.852Z,9.80
2023-02-18T09:05:40.450Z,10.00
2023-02-18T09:08:07.130Z,9.90
2023-02-18T09:10:34.510Z,10.00
2023-02-18T09:13:01.470Z,10.00
2023-02-18T09:15:28.176Z,10.00
2023-02-18T09:17:54.858Z,9.90
2023-02-18T09:20:21.608Z,9.80
2023-02-18T09:22:48.332Z,10.00
2023-02-18T09:25:42.103Z,10.20
2023-02-18T09:28:08.802Z,10.10
2023-02-18T09:30:55.493Z,10.10
2023-02-18T09:33:22.876Z,10.20
2023-02-18T09:35:49.580Z,10.40
2023-02-18T09:38:17.298Z,10.40
2023-02-18T09:40:45.696Z,10.70
2023-02-18T09:43:38.706Z,10.50
2023-02-18T09:46:06.979Z,10.50
2023-02-18T09:48:35.147Z,10.80
2023-02-18T09:51:01.865Z,10.70
2023-02-18T09:53:28.784Z,10.70
2023-02-18T09:55:56.587Z,10.80
2023-02-18T09:58:28.777Z,10.90
2023-02-18T10:01:12.986Z,10.90
2023-02-18T10:03:40.645Z,10.80
2023-02-18T10:06:10.732Z,11.10
2023-02-18T10:08:39.929Z,11.20
2023-02-18T10:11:17.263Z,11.50
2023-02-18T10:13:44.524Z,11.60
2023-02-18T10:16:15.492Z,11.80
2023-02-18T10:18:42.982Z,12.00
2023-02-18T10:21:11.542Z,12.10
2023-02-18T10:23:40.165Z,12.50
2023-02-18T10:26:12.036Z,12.60
2023-02-18T10:28:38.926Z,12.90
2023-02-18T10:31:11.270Z,12.80
2023-02-18T10:33:45.008Z,13.00
2023-02-18T10:36:17.771Z,13.10
2023-02-18T10:39:01.121Z,13.50
2023-02-18T10:41:39.515Z,13.50
2023-02-18T10:44:09.321Z,13.50
2023-02-18T10:46:39.079Z,13.60
2023-02-18T10:49:23.087Z,13.70
2023-02-18T10:51:51.218Z,13.90
2023-02-18T10:54:18.058Z,14.30
2023-02-18T10:56:48.746Z,14.30
2023-02-18T10:59:21.583Z,14.40
2023-02-18T11:01:56.522Z,14.70
2023-02-18T11:04:28.458Z,14.90
2023-02-18T11:06:55.391Z,15.20
2023-02-18T11:09:25.186Z,15.30
2023-02-18T11:12:01.397Z,15.30
2023-02-18T11:14:39.266Z,15.50
2023-02-18T11:17:17.647Z,15.70
2023-02-18T11:19:51.701Z,15.80
2023-02-18T11:22:19.976Z,15.70
2023-02-18T11:24:50.466Z,15.60
2023-02-18T11:27:20.602Z,15.90
2023-02-18T11:29:56.473Z,15.80
2023-02-18T11:32:32.310Z,16.00
2023-02-18T11:34:59.151Z,15.80
2023-02-18T11:37:26.185Z,15.90
2023-02-18T11:39:55.523Z,16.10
2023-02-18T11:42:24.492Z,16.00
2023-02-18T11:44:58.652Z,16.10
2023-02-18T11:47:27.089Z,15.80
2023-02-18T11:50:01.548Z,15.70
2023-02-18T11:52:33.031Z,15.90
2023-02-18T11:55:05.921Z,16.00
2023-02-18T11:57:34.109Z,16.10
2023-02-18T12:00:01.072Z,16.10
2023-02-18T12:02:31.789Z,16.00
2023-02-18T12:05:02.278Z,16.00
2023-02-18T12:07:41.297Z,16.00
2023-02-18T12:10:28.243Z,16.10
2023-02-18T12:12:59.754Z,16.40
2023-02-18T12:15:37.800Z,16.20
2023-02-18T12:18:04.630Z,16.50
2023-02-18T12:20:34.377Z,16.40
2023-02-18T12:23:04.217Z,16.20
2023-02-18T12:25:33.909Z,16.30
2023-02-18T12:28:10.862Z,16.30
2023-02-18T12:30:58.340Z,16.40
2023-02-18T12:33:30.055Z,16.40
2023-02-18T12:35:56.687Z,16.20
2023-02-18T12:38:42.281Z,16.40
2023-02-18T12:41:18.032Z,16.10
2023-02-18T12:43:53.803Z,16.40
2023-02-18T12:46:27.492Z,16.40
2023-02-18T12:49:14.404Z,16.90
2023-02-18T12:51:47.165Z,16.70
2023-02-18T12:54:22.077Z,16.90
2023-02-18T12:57:01.077Z,17.20
2023-02-18T12:59:44.292Z,17.10
2023-02-18T13:02:31.280Z,16.80
2023-02-18T13:05:04.039Z,16.70
2023-02-18T13:07:47.657Z,16.80
2023-02-18T13:10:25.361Z,17.10
2023-02-18T13:13:08.720Z,16.90
2023-02-18T13:16:04.856Z,16.70
2023-02-18T13:18:44.342Z,16.80
2023-02-18T13:21:12.724Z,16.50
2023-02-18T13:23:43.215Z,16.60
2023-02-18T13:26:11.693Z,16.50
2023-02-18T13:28:43.345Z,16.40
2023-02-18T13:31:19.375Z,16.40
2023-02-18T13:34:05.000Z,16.40
2023-02-18T13:36:40.038Z,16.20
2023-02-18T13:39:08.366Z,15.90
2023-02-18T13:41:42.230Z,15.50
2023-02-18T13:44:21.034Z,15.70
2023-02-18T13:46:52.330Z,15.60
2023-02-18T13:49:23.480Z,15.30
2023-02-18T13:51:51.496Z,15.20
2023-02-18T13:54:26.329Z,15.30
2023-02-18T13:56:55.007Z,15.40
2023-02-18T13:59:30.995Z,15.20
2023-02-18T14:02:08.114Z,15.20
2023-02-18T14:04:41.884Z,15.20
2023-02-18T14:07:29.065Z,15.40
2023-02-18T14:09:56.685Z,15.40
2023-02-18T14:12:46.714Z,15.20
2023-02-18T14:15:19.081Z,15.10
2023-02-18T14:17:49.649Z,15.00
2023-02-18T14:20:19.246Z,15.20
2023-02-18T14:22:52.282Z,15.10
2023-02-18T14:25:21.851Z,15.20
2023-02-18T14:27:52.270Z,15.10
2023-02-18T14:30:21.641Z,14.90
2023-02-18T14:32:50.428Z,14.80
2023-02-18T14:35:20.068Z,14.40
2023-02-18T14:37:56.845Z,14.50
2023-02-18T14:40:33.522Z,14.60
2023-02-18T14:43:00.208Z,14.30
2023-02-18T14:45:26.893Z,14.00
2023-02-18T14:48:32.263Z,13.90
2023-02-18T14:51:00.263Z,13.80
2023-02-18T14:53:28.097Z,13.40
2023-02-18T14:55:58.007Z,13.30
2023-02-18T14:58:28.346Z,13.20
2023-02-18T15:00:55.123Z,13.10
2023-02-18T15:03:22.445Z,13.10
2023-02-18T15:05:51.598Z,13.00
2023-02-18T15:08:22.991Z,12.70
2023-02-18T15:10:52.718Z,12.70
2023-02-18T15:13:21.756Z,12.50
2023-02-18T15:15:50.945Z,12.50
2023-02-18T15:18:23.198Z,12.40
2023-02-18T15:20:50.066Z,12.10
2023-02-18T15:23:17.201Z,12.00
2023-02-18T15:25:51.828Z,12.00
2023-02-18T15:28:26.562Z,11.90
2023-02-18T15:30:53.359Z,11.90
2023-02-18T15:33:20.752Z,11.90
2023-02-18T15:35:47.706Z,11.60
2023-02-18T15:38:15.538Z,11.60
2023-02-18T15:40:42.744Z,11.40
2023-02-18T15:43:10.008Z,11.30
2023-02-18T15:45:39.818Z,11.30
2023-02-18T15:48:06.536Z,11.10
2023-02-18T15:50:34.999Z,10.50
2023-02-18T15:53:27.851Z,10.50
2023-02-18T15:55:56.695Z,10.30
2023-02-18T15:58:28.515Z,10.30
2023-02-18T16:00:57.537Z,10.30
2023-02-18T16:03:30.659Z,10.10
2023-02-18T16:06:10.147Z,10.00
2023-02-18T16:08:37.379Z,9.50
2023-02-18T16:11:06.908Z,9.40
2023-02-18T16:13:35.515Z,9.10
2023-02-18T16:16:02.506Z,8.90
2023-02-18T16:18:38.270Z,8.60
2023-02-18T16:21:09.393Z,7.90
2023-02-18T16:23:40.852Z,8.30
2023-02-18T16:26:27.669Z,8.60
2023-02-18T16:28:55.828Z,7.70
2023-02-18T16:31:22.791Z,7.80
2023-02-18T16:33:49.833Z,8.00
2023-02-18T16:36:16.932Z,7.00
2023-02-18T16:38:44.605Z,7.00
2023-02-18T16:41:12.795Z,6.90
2023-02-18T16:43:40.060Z,7.30
2023-02-18T16:46:14.601Z,6.60
2023-02-18T16:48:42.604Z,6.60
2023-02-18T16:51:14.722Z,6.90
2023-02-18T16:53:41.545Z,6.80
2023-02-18T16:56:13.581Z,6.80
2023-02-18T16:58:40.400Z,6.50
2023-02-18T17:01:21.523Z,6.20
2023-02-18T17:03:48.963Z,6.00
2023-02-18T17:06:16.018Z,6.20
2023-02-18T17:08:42.716Z,5.90
2023-02-18T17:11:12.149Z,5.90
2023-02-18T17:13:38.774Z,5.90
2023-02-18T17:16:06.254Z,5.60
2023-02-18T17:18:32.953Z,5.80
2023-02-18T17:20:59.829Z,5.90
2023-02-18T17:23:26.476Z,6.40
2023-02-18T17:25:53.540Z,6.20
2023-02-18T17:28:20.394Z,5.80
2023-02-18T17:30:53.951Z,5.80
2023-02-18T17:33:20.750Z,4.90
2023-02-18T17:35:47.429Z,5.50
2023-02-18T17:38:14.906Z,5.10
2023-02-18T17:40:41.701Z,5.30
2023-02-18T17:43:15.608Z,5.20
2023-02-18T17:45:44.701Z,5.20
2023-02-18T17:48:11.380Z,5.00
2023-02-18T17:50:38.042Z,4.80
2023-02-18T17:53:04.892Z,5.20
2023-02-18T17:55:32.681Z,4.80
2023-02-18T17:57:59.643Z,4.60
2023-02-18T18:00:30.903Z,4.30
2023-02-18T18:02:57.605Z,4.50
2023-02-18T18:05:26.314Z,4.80
2023-02-18T18:07:53.359Z,5.00
2023-02-18T18:10:22.070Z,4.80
2023-02-18T18:12:49.525Z,4.30
2023-02-18T18:15:24.485Z,4.50
2023-02-18T18:17:51.697Z,4.40
2023-02-18T18:20:19.078Z,4.90
2023-02-18T18:22:46.204Z,4.40
2023-02-18T18:25:18.990Z,4.20
2023-02-18T18:27:45.692Z,3.90
2023-02-18T18:30:12.599Z,4.10
2023-02-18T18:32:39.313Z,4.10
2023-02-18T18:35:16.141Z,4.60
2023-02-18T18:37:42.823Z,4.60
2023-02-18T18:40:10.068Z,4.60
2023-02-18T18:42:36.824Z,4.80
2023-02-18T18:45:03.654Z,4.70
2023-02-18T18:47:30.302Z,4.60
2023-02-18T18:49:57.436Z,4.30
2023-02-18T18:52:24.192Z,4.60
2023-02-18T18:54:50.820Z,4.50
2023-02-18T18:57:17.449Z,4.70
2023-02-18T18:59:44.080Z,4.00
2023-02-18T19:02:15.683Z,4.40
2023-02-18T19:04:42.525Z,4.60
2023-02-18T19:07:09.220Z,4.50
2023-02-18T19:09:35.872Z,4.60
2023-02-18T19:12:02.504Z,4.60
2023-02-18T19:14:29.136Z,4.80
2023-02-18T19:16:56.185Z,5.00
2023-02-18T19:19:24.599Z,4.10
2023-02-18T19:21:52.915Z,4.20
2023-02-18T19:24:19.607Z,3.90
2023-02-18T19:26:46.308Z,4.10
2023-02-18T19:29:12.938Z,4.50
2023-02-18T19:31:39.645Z,4.10
2023-02-18T19:34:06.322Z,3.90
2023-02-18T19:36:32.973Z,3.70
2023-02-18T19:38:59.622Z,4.00
2023-02-18T19:41:26.269Z,4.70
2023-02-18T19:43:53.698Z,4.50
2023-02-18T19:46:20.393Z,4.50
2023-02-18T19:48:47.773Z,4.60
2023-02-18T19:51:14.616Z,4.80
2023-02-18T19:53:41.282Z,4.60
2023-02-18T19:56:08.122Z,4.50
2023-02-18T19:58:35.730Z,4.20
2023-02-18T20:01:02.695Z,4.30
2023-02-18T20:03:29.553Z,4.20
2023-02-18T20:05:56.238Z,3.90
2023-02-18T20:08:22.869Z,3.90
2023-02-18T20:10:55.993Z,3.90
2023-02-18T20:13:22.621Z,4.90
2023-02-18T20:15:49.353Z,5.40
2023-02-18T20:18:15.988Z,5.00
2023-02-18T20:20:47.045Z,4.60
2023-02-18T20:23:13.705Z,4.70
2023-02-18T20:25:40.328Z,5.20
2023-02-18T20:28:06.984Z,5.10
2023-02-18T20:30:33.681Z,5.00
2023-02-18T20:33:00.372Z,5.00
2023-02-18T20:35:27.102Z,4.80
2023-02-18T20:37:53.716Z,5.00
2023-02-18T20:40:20.436Z,5.00
2023-02-18T20:42:47.109Z,5.10
2023-02-18T20:45:13.783Z,5.20
2023-02-18T20:47:40.471Z,5.00
2023-02-18T20:50:07.211Z,4.80
2023-02-18T20:52:34.855Z,5.10
2023-02-18T20:55:01.766Z,5.00
2023-02-18T20:57:28.400Z,5.10
2023-02-18T20:59:55.203Z,5.10
2023-02-18T21:02:21.845Z,5.00
2023-02-18T21:04:48.473Z,5.10
2023-02-18T21:07:15.140Z,5.20
2023-02-18T21:09:41.813Z,4.90
2023-02-18T21:12:09.746Z,5.00
2023-02-18T21:14:36.409Z,5.40
2023-02-18T21:17:03.720Z,5.20
2023-02-18T21:19:30.757Z,5.00
2023-02-18T21:21:57.409Z,5.20
2023-02-18T21:24:24.071Z,5.10
2023-02-18T21:26:50.722Z,5.00
2023-02-18T21:29:17.453Z,4.90
2023-02-18T21:31:44.658Z,6.20
2023-02-18T21:34:12.383Z,6.00
2023-02-18T21:36:39.090Z,5.50
2023-02-18T21:39:07.339Z,5.30
2023-02-18T21:41:34.700Z,6.00
2023-02-18T21:44:01.486Z,5.90
2023-02-18T21:46:32.339Z,5.50
2023-02-18T21:49:02.300Z,5.50
2023-02-18T21:51:48.260Z,5.60
2023-02-18T21:54:15.949Z,5.20
2023-02-18T21:56:42.792Z,4.90
2023-02-18T21:59:09.467Z,5.00
2023-02-18T22:01:36.117Z,5.00
2023-02-18T22:04:02.880Z,5.10
2023-02-18T22:06:29.601Z,5.10
2023-02-18T22:08:56.250Z,4.90
2023-02-18T22:11:22.874Z,4.90
2023-02-18T22:13:49.498Z,5.40
2023-02-18T22:16:16.235Z,5.30
2023-02-18T22:18:42.884Z,5.50
2023-02-18T22:21:10.241Z,5.30
2023-02-18T22:23:37.216Z,5.30
2023-02-18T22:26:07.645Z,5.10
2023-02-18T22:28:34.809Z,5.10
2023-02-18T22:31:12.198Z,5.10
2023-02-18T22:33:39.360Z,5.20
2023-02-18T22:36:09.578Z,4.80
2023-02-18T22:38:37.197Z,5.00
2023-02-18T22:41:11.907Z,5.00
2023-02-18T22:43:38.945Z,4.80
2023-02-18T22:46:10.713Z,4.80
2023-02-18T22:48:37.863Z,4.60
2023-02-18T22:51:08.952Z,4.60
2023-02-18T22:53:36.237Z,4.80
2023-02-18T22:56:04.111Z,4.90
2023-02-18T22:58:31.020Z,4.60
2023-02-18T23:00:58.018Z,4.30
2023-02-18T23:03:26.442Z,4.40
2023-02-18T23:05:53.416Z,4.60
2023-02-18T23:08:20.164Z,4.40
2023-02-18T23:10:46.877Z,4.20
2023-02-18T23:13:13.501Z,4.10
2023-02-18T23:15:40.189Z,4.60
2023-02-18T23:18:06.889Z,4.50
2023-02-18T23:20:52.362Z,3.80
2023-02-18T23:23:18.991Z,4.00
2023-02-18T23:25:45.644Z,4.00
2023-02-18T23:28:12.298Z,3.80
2023-02-18T23:30:39.079Z,4.10
2023-02-18T23:33:05.834Z,4.30
2023-02-18T23:35:32.497Z,3.60
2023-02-18T23:38:05.577Z,3.60
2023-02-18T23:40:32.672Z,3.60
2023-02-18T23:42:59.326Z,3.40
2023-02-18T23:45:26.224Z,3.60
2023-02-18T23:47:53.090Z,3.70
2023-02-18T23:50:19.910Z,3.90
2023-02-18T23:52:47.463Z,3.90
2023-02-18T23:55:14.094Z,3.30
2023-02-18T23:57:40.731Z,3.60
